Terminal Aerodrome Forecast
Issued by NWS Wilmington, OH

Home | Current Version | Previous Version | Text Only | Print | Product List | Glossary On
Versions: 1 2 3 4 5 6 7 8 9 10 11 12 13 14 15 16
000
FTUS41 KILN 211100
TAFDAY
TAF
KDAY 211120Z 2112/2212 19004KT P6SM BKN200
     FM211500 23012KT P6SM FEW050 BKN150
     FM220000 23010KT P6SM OVC120
     FM220200 23010KT P6SM VCSH OVC080
     FM220600 24012KT P6SM -SHRA BKN035 OVC080
     FM220900 26014KT P6SM VCSH BKN015 OVC080
     FM221100 30015KT P6SM OVC025=

USA.gov is the U.S. government's official web portal to all federal, state and local government web resources and services.